Time;durP1;ratioP1;P1;durP2;ratioP2;P2;SDS_P1;SDS_P2;PMS_P1;PMS_P2;Temp;Humidity;BMP_temperature;BMP_pressure;BME280_temperature;BME280_humidity;BME280_pressure;Samples;Min_cycle;Max_cycle;Signal;HPM_P1;HPM_P2
2022/06/14 00:03:16;;;;;;;9.28;6.58;;;;;;;12.40;88.72;100739.01;1764352;79;26468;-84
2022/06/14 00:06:06;;;;;;;9.33;5.83;;;;;;;12.38;88.89;100741.06;1740789;82;25883;-84
2022/06/14 00:08:46;;;;;;;11.08;6.00;;;;;;;12.37;89.00;100740.77;1742979;80;25809;-84
2022/06/14 00:11:23;;;;;;;13.72;6.08;;;;;;;12.38;88.89;100745.09;1761356;81;26723;-84
2022/06/14 00:13:52;;;;;;;10.18;6.08;;;;;;;12.38;88.78;100746.97;1739688;82;26167;-84
2022/06/14 00:16:21;;;;;;;10.32;5.58;;;;;;;12.35;88.54;100752.22;1752677;81;27431;-84
2022/06/14 00:18:48;;;;;;;12.33;6.45;;;;;;;12.32;88.22;100751.25;1733197;82;25781;-83
2022/06/14 00:21:15;;;;;;;7.70;4.97;;;;;;;12.31;88.21;100760.85;1733057;82;26004;-83
2022/06/14 00:23:41;;;;;;;9.15;5.53;;;;;;;12.28;88.12;100767.44;1764654;81;25873;-84
2022/06/14 00:26:11;;;;;;;8.73;6.22;;;;;;;12.25;88.24;100761.63;1727384;82;26000;-83
2022/06/14 00:28:39;;;;;;;8.38;5.85;;;;;;;12.23;88.31;100759.66;1742741;81;28440;-84
2022/06/14 00:31:19;;;;;;;9.95;6.15;;;;;;;12.22;88.62;100760.66;1734459;81;25930;-83
2022/06/14 00:33:45;;;;;;;11.60;5.80;;;;;;;12.23;88.78;100760.46;1732903;82;26117;-84
2022/06/14 00:36:29;;;;;;;10.00;6.28;;;;;;;12.24;88.91;100761.30;1759987;81;26718;-84
2022/06/14 00:39:00;;;;;;;12.13;7.10;;;;;;;12.24;89.00;100759.95;1740620;81;26375;-84
2022/06/14 00:41:43;;;;;;;8.08;6.30;;;;;;;12.24;89.12;100762.64;1736171;81;27498;-84
2022/06/14 00:44:20;;;;;;;10.15;6.67;;;;;;;12.25;89.12;100759.75;1764371;81;26469;-84
2022/06/14 00:47:12;;;;;;;14.00;6.53;;;;;;;12.23;89.24;100763.14;1727642;82;25820;-84
2022/06/14 00:49:49;;;;;;;11.25;6.33;;;;;;;12.20;89.38;100767.58;1722727;82;25892;-84
2022/06/14 00:52:35;;;;;;;14.63;7.10;;;;;;;12.16;89.27;100768.99;1752849;80;25901;-83
2022/06/14 00:55:13;;;;;;;11.18;6.80;;;;;;;12.13;89.44;100767.19;1713809;82;27446;-84
2022/06/14 00:57:56;;;;;;;12.00;6.78;;;;;;;12.11;89.44;100767.89;1740208;81;25862;-84
2022/06/14 01:00:27;;;;;;;14.38;6.95;;;;;;;12.09;89.35;100764.06;1740325;82;26188;-84
2022/06/14 01:02:56;;;;;;;9.10;7.20;;;;;;;12.07;89.36;100766.11;1755554;80;25866;-84
2022/06/14 01:06:05;;;;;;;12.85;6.55;;;;;;;12.06;89.33;100773.83;1735803;82;26070;-84
2022/06/14 01:08:01;;;;;;;10.78;6.87;;;;;;;12.07;89.31;100767.96;1731363;82;28464;-84
2022/06/14 01:10:31;;;;;;;11.38;6.67;;;;;;;12.03;89.06;100768.03;1753701;81;25944;-84
2022/06/14 01:13:01;;;;;;;9.93;6.58;;;;;;;12.00;89.08;100769.23;1733046;82;25877;-84
2022/06/14 01:15:32;;;;;;;14.93;6.53;;;;;;;11.99;89.08;100766.25;1740759;82;26595;-84
2022/06/14 01:18:10;;;;;;;;;;;;;;;11.95;88.96;100769.50;1767462;81;25892;-84
2022/06/14 01:20:38;;;;;;;16.52;6.20;;;;;;;11.96;89.17;100770.64;1748119;81;28239;-84
2022/06/14 01:23:08;;;;;;;12.93;6.33;;;;;;;11.96;88.98;100776.02;1753085;81;25887;-84
2022/06/14 01:25:40;;;;;;;14.87;5.95;;;;;;;11.90;88.80;100766.05;1728565;82;25828;-85
2022/06/14 01:28:10;;;;;;;11.55;6.28;;;;;;;11.85;88.69;100773.83;1750732;81;25833;-85
2022/06/14 01:30:45;;;;;;;10.48;6.75;;;;;;;11.80;88.82;100774.09;1719317;82;25886;-84
2022/06/14 01:33:17;;;;;;;9.38;6.03;;;;;;;11.77;88.92;100775.80;1764715;81;28302;-85
2022/06/14 01:35:49;;;;;;;9.60;6.33;;;;;;;11.76;88.80;100775.50;1750150;81;25878;-84
2022/06/14 01:38:17;;;;;;;12.60;5.90;;;;;;;11.72;88.79;100771.53;1731362;81;25766;-85
2022/06/14 01:41:07;;;;;;;13.45;5.37;;;;;;;11.70;88.84;100773.05;1731275;81;25880;-84
2022/06/14 01:44:14;;;;;;;10.47;5.97;;;;;;;11.70;88.86;100775.73;1734645;82;25853;-85
2022/06/14 01:46:46;;;;;;;8.80;5.42;;;;;;;11.65;88.78;100776.80;1745412;80;28307;-85
2022/06/14 01:52:22;;;;;;;9.70;5.37;;;;;;;11.53;88.67;100783.14;1746564;81;25826;-85
2022/06/14 01:55:16;;;;;;;11.95;6.92;;;;;;;11.49;88.75;100781.03;1754534;81;34551;-84
2022/06/14 01:58:13;;;;;;;10.35;5.47;;;;;;;11.51;88.96;100781.16;1730513;82;25937;-86
2022/06/14 02:01:12;;;;;;;11.03;5.67;;;;;;;11.51;88.86;100778.48;1753155;81;28014;-84
2022/06/14 02:07:15;;;;;;;11.33;6.08;;;;;;;11.49;88.65;100779.69;1729961;82;25943;-85
2022/06/14 02:09:59;;;;;;;10.68;6.22;;;;;;;11.47;88.73;100781.22;1753322;81;25922;-84
2022/06/14 02:12:46;;;;;;;10.15;5.78;;;;;;;11.49;88.72;100787.73;1703829;82;25795;-84
2022/06/14 02:15:23;;;;;;;11.45;5.35;;;;;;;11.51;88.63;100787.88;1730737;81;27465;-85
2022/06/14 02:18:13;;;;;;;9.33;5.67;;;;;;;11.53;88.43;100789.86;1679250;82;26155;-85
2022/06/14 02:20:45;;;;;;;12.00;5.12;;;;;;;11.51;88.29;100791.05;1758142;81;25757;-84
2022/06/14 02:23:13;;;;;;;15.85;5.92;;;;;;;11.47;88.14;100795.97;1736014;82;25945;-84
2022/06/14 02:26:03;;;;;;;11.83;6.17;;;;;;;11.46;88.15;100794.83;1764995;81;25269;-84
2022/06/14 02:28:53;;;;;;;15.97;6.40;;;;;;;11.45;88.07;100794.50;1746150;81;27452;-85
2022/06/14 02:31:34;;;;;;;14.38;6.30;;;;;;;11.41;88.00;100801.25;1761594;81;25955;-84
2022/06/14 02:34:14;;;;;;;11.78;5.62;;;;;;;11.40;87.99;100801.75;1764663;81;25987;-84
2022/06/14 02:36:52;;;;;;;13.23;6.47;;;;;;;11.41;87.73;100800.75;1736149;82;25824;-85
2022/06/14 02:39:35;;;;;;;13.13;6.08;;;;;;;11.39;87.69;100800.61;1763045;81;25926;-84
2022/06/14 02:42:19;;;;;;;13.03;6.75;;;;;;;11.37;87.64;100799.47;1750436;80;27366;-85
2022/06/14 02:45:03;;;;;;;11.28;6.22;;;;;;;11.32;87.60;100799.19;1753903;80;26067;-84
2022/06/14 02:47:52;;;;;;;11.93;5.72;;;;;;;11.27;87.72;100803.45;1730353;81;25587;-84
2022/06/14 02:50:30;;;;;;;10.63;6.10;;;;;;;11.26;87.80;100814.69;1762294;81;25832;-85
2022/06/14 02:53:17;;;;;;;9.73;5.37;;;;;;;11.23;87.94;100805.66;1739919;81;25817;-84
2022/06/14 02:56:08;;;;;;;11.88;5.70;;;;;;;11.22;87.95;100808.03;1736403;82;28627;-85
2022/06/14 02:59:10;;;;;;;8.45;6.25;;;;;;;11.20;87.92;100815.94;1719305;82;25801;-84
2022/06/14 03:02:10;;;;;;;11.33;6.35;;;;;;;11.16;88.13;100818.66;1729428;81;25741;-84
2022/06/14 03:05:00;;;;;;;10.70;6.33;;;;;;;11.13;88.35;100821.20;1722894;82;25994;-85
2022/06/14 03:07:56;;;;;;;10.15;5.85;;;;;;;11.11;88.45;100821.90;1726508;81;25796;-84
2022/06/14 03:11:08;;;;;;;15.63;5.55;;;;;;;11.10;88.58;100824.23;1750086;79;26369;-84
2022/06/14 03:14:34;;;;;;;14.05;5.33;;;;;;;11.08;88.76;100815.55;1724953;82;25802;-84
2022/06/14 03:17:55;;;;;;;12.93;6.42;;;;;;;11.11;88.86;100827.26;1738900;81;25886;-84
2022/06/14 03:21:14;;;;;;;;;;;;;;;11.13;89.05;100821.20;1737257;81;25862;-84
2022/06/14 03:24:14;;;;;;;10.98;5.08;;;;;;;11.18;89.07;100824.67;1724063;82;25768;-85
2022/06/14 03:27:07;;;;;;;11.50;6.17;;;;;;;11.22;89.23;100832.16;1756549;81;27633;-85
2022/06/14 03:29:57;;;;;;;11.53;5.67;;;;;;;11.24;89.11;100835.49;1728173;82;25589;-85
2022/06/14 03:32:34;;;;;;;12.93;5.30;;;;;;;11.32;89.13;100838.57;1750454;80;26458;-85
2022/06/14 03:35:09;;;;;;;12.35;5.53;;;;;;;11.40;89.01;100831.27;1734237;82;25847;-85
2022/06/14 03:37:35;;;;;;;7.30;4.70;;;;;;;11.49;89.02;100831.49;1754736;81;25846;-84
2022/06/14 03:40:07;;;;;;;11.53;4.75;;;;;;;11.55;88.89;100837.95;1712850;82;27432;-85
2022/06/14 03:42:35;;;;;;;12.28;4.85;;;;;;;11.62;88.96;100839.70;1744740;81;25980;-84
2022/06/14 03:45:04;;;;;;;8.40;4.42;;;;;;;11.68;88.97;100841.33;1763781;80;25871;-85
2022/06/14 03:47:31;;;;;;;13.58;4.70;;;;;;;11.73;89.08;100842.45;1740330;82;26522;-84
2022/06/14 03:50:11;;;;;;;9.68;4.90;;;;;;;11.76;88.92;100842.59;1764707;80;25731;-85
2022/06/14 03:53:16;;;;;;;9.30;4.70;;;;;;;11.79;89.09;100844.88;1753846;81;27457;-85
2022/06/14 03:56:26;;;;;;;8.63;4.53;;;;;;;11.82;89.01;100849.38;1732484;82;25952;-87
2022/06/14 03:59:13;;;;;;;8.15;4.40;;;;;;;11.84;88.91;100847.34;1765039;80;25877;-85
2022/06/14 04:01:45;;;;;;;9.20;4.55;;;;;;;11.83;88.98;100851.53;1731083;82;25922;-85
2022/06/14 04:04:19;;;;;;;11.33;4.40;;;;;;;11.85;89.19;100848.14;1728616;81;26105;-84
2022/06/14 04:07:11;;;;;;;9.25;5.33;;;;;;;11.87;89.06;100852.84;1727694;82;27523;-84
2022/06/14 04:10:04;;;;;;;7.12;4.90;;;;;;;11.90;89.04;100850.60;1741991;81;25322;-84
2022/06/14 04:12:48;;;;;;;10.23;4.95;;;;;;;12.01;89.11;100857.33;1753217;81;25638;-85
2022/06/14 04:15:41;;;;;;;8.10;4.80;;;;;;;12.13;88.90;100853.95;1758409;81;25737;-84
2022/06/14 04:18:40;;;;;;;8.88;4.15;;;;;;;12.17;88.77;100852.55;1726388;82;25849;-84
2022/06/14 04:21:27;;;;;;;9.33;4.70;;;;;;;12.17;88.62;100849.02;1751568;80;27448;-83
2022/06/14 04:24:17;;;;;;;7.72;4.37;;;;;;;12.20;88.59;100850.83;1733745;82;26509;-84
2022/06/14 04:27:04;;;;;;;7.15;3.70;;;;;;;12.23;88.31;100853.12;1740767;82;26474;-84
2022/06/14 04:29:40;;;;;;;9.03;3.75;;;;;;;12.27;88.27;100856.27;1753084;81;26319;-84
2022/06/14 04:32:14;;;;;;;9.13;3.45;;;;;;;12.31;88.38;100857.55;1726723;81;25817;-84
2022/06/14 04:34:48;;;;;;;8.80;5.53;;;;;;;12.40;88.61;100852.38;1764205;81;27434;-84
2022/06/14 04:37:26;;;;;;;6.60;4.20;;;;;;;12.47;88.26;100850.56;1762421;80;25816;-83
2022/06/14 04:39:57;;;;;;;12.53;4.62;;;;;;;12.51;87.98;100859.09;1732689;82;25680;-84
2022/06/14 04:42:32;;;;;;;9.83;5.62;;;;;;;12.56;87.95;100853.44;1765045;80;25881;-84
2022/06/14 04:45:04;;;;;;;8.45;3.77;;;;;;;12.62;87.99;100855.34;1765487;80;26328;-85
2022/06/14 04:47:45;;;;;;;5.35;3.77;;;;;;;12.69;88.15;100853.56;1740352;82;27510;-84
2022/06/14 04:50:26;;;;;;;7.40;2.90;;;;;;;12.79;88.39;100860.77;1752711;80;25774;-83
2022/06/14 04:52:57;;;;;;;6.55;2.98;;;;;;;12.91;88.25;100861.08;1755131;81;25447;-84
2022/06/14 04:55:34;;;;;;;6.37;2.77;;;;;;;13.00;87.93;100854.53;1725829;82;26546;-85
2022/06/14 04:58:11;;;;;;;7.47;3.30;;;;;;;13.09;87.91;100858.74;1740187;81;25816;-84
2022/06/14 05:00:43;;;;;;;7.33;3.25;;;;;;;13.15;87.80;100860.13;1717991;80;27477;-85
2022/06/14 05:03:32;;;;;;;8.03;2.70;;;;;;;13.20;86.99;100858.70;1729278;82;25946;-84
2022/06/14 05:06:12;;;;;;;6.80;2.72;;;;;;;13.29;87.61;100866.95;1765174;81;25803;-84
2022/06/14 05:09:02;;;;;;;6.37;2.45;;;;;;;13.42;87.94;100864.33;1735473;82;26601;-85
2022/06/14 05:12:24;;;;;;;6.33;2.87;;;;;;;13.49;87.48;100867.91;1721187;82;26046;-83
2022/06/14 05:15:07;;;;;;;4.00;2.02;;;;;;;13.57;86.92;100862.34;1677029;85;28450;-84
2022/06/14 05:17:48;;;;;;;4.85;2.35;;;;;;;13.67;86.91;100864.14;1723729;81;26429;-83
2022/06/14 05:20:32;;;;;;;4.83;2.50;;;;;;;13.78;86.94;100870.31;1731066;81;34929;-84
2022/06/14 05:23:22;;;;;;;5.05;2.37;;;;;;;13.85;86.65;100859.89;1734002;82;26598;-85
2022/06/14 05:26:17;;;;;;;5.67;2.27;;;;;;;13.93;86.41;100862.91;1754708;81;25333;-84
2022/06/14 05:29:11;;;;;;;5.28;2.30;;;;;;;13.97;85.86;100866.86;1731302;82;27431;-84
2022/06/14 05:32:01;;;;;;;5.62;2.47;;;;;;;14.06;86.27;100859.42;1765387;80;25951;-84
2022/06/14 05:34:51;;;;;;;7.50;2.55;;;;;;;14.14;86.04;100861.42;1724213;81;25858;-83
2022/06/14 05:37:48;;;;;;;9.50;2.50;;;;;;;14.20;85.49;100861.95;1762235;81;25984;-82
2022/06/14 05:40:46;;;;;;;5.55;2.10;;;;;;;14.29;85.85;100856.72;1743189;80;25356;-83
2022/06/14 05:43:27;;;;;;;5.45;1.70;;;;;;;14.38;85.90;100865.44;1740801;82;27452;-84
2022/06/14 05:46:01;;;;;;;6.95;2.08;;;;;;;14.44;84.86;100861.41;1765690;80;25991;-84
2022/06/14 05:48:36;;;;;;;4.12;1.72;;;;;;;14.50;85.12;100857.89;1719757;81;25823;-83
2022/06/14 05:51:06;;;;;;;2.58;1.67;;;;;;;14.59;85.67;100863.91;1763680;79;26742;-83
2022/06/14 05:53:46;;;;;;;4.58;1.72;;;;;;;14.70;85.63;100867.34;1748900;81;26401;-83
2022/06/14 05:56:37;;;;;;;3.67;1.47;;;;;;;14.80;85.20;100868.30;1738683;80;28257;-82
2022/06/14 05:59:32;;;;;;;7.15;1.82;;;;;;;14.89;83.98;100865.67;1738150;82;25752;-83
2022/06/14 06:02:22;;;;;;;1.95;1.40;;;;;;;14.94;84.78;100872.13;1765014;80;25358;-83
2022/06/14 06:04:54;;;;;;;3.83;1.72;;;;;;;15.09;84.02;100874.59;1719800;81;26572;-84
2022/06/14 06:07:29;;;;;;;4.40;1.60;;;;;;;15.12;83.55;100873.64;1729131;82;25856;-84
2022/06/14 06:10:09;;;;;;;4.33;1.60;;;;;;;15.16;83.52;100872.19;1765384;81;27452;-85
2022/06/14 06:12:44;;;;;;;6.28;1.67;;;;;;;15.25;83.53;100867.39;1719283;82;25916;-83
2022/06/14 06:15:31;;;;;;;8.20;1.52;;;;;;;15.33;83.38;100872.59;1725278;82;25309;-83
2022/06/14 06:18:09;;;;;;;3.15;1.67;;;;;;;15.44;83.64;100868.73;1741940;81;26435;-83
2022/06/14 06:20:43;;;;;;;8.48;2.00;;;;;;;15.58;83.84;100872.75;1731052;82;25797;-82
2022/06/14 06:23:32;;;;;;;5.25;1.82;;;;;;;15.69;83.42;100874.28;1765518;80;29369;-84
2022/06/14 06:25:59;;;;;;;6.17;1.70;;;;;;;15.79;82.47;100873.30;1729043;82;26034;-84
2022/06/14 06:28:42;;;;;;;4.58;1.42;;;;;;;15.73;81.54;100878.22;1740315;82;25751;-83
2022/06/14 06:31:17;;;;;;;5.83;1.67;;;;;;;15.69;80.63;100874.80;1751530;80;25985;-83
2022/06/14 06:33:51;;;;;;;4.95;1.45;;;;;;;15.68;80.61;100883.41;1735010;82;25897;-83
2022/06/14 06:36:43;;;;;;;5.28;1.60;;;;;;;15.69;80.64;100882.39;1747641;80;28500;-82
2022/06/14 06:39:23;;;;;;;6.72;1.82;;;;;;;15.74;80.23;100879.86;1741916;81;26517;-83
2022/06/14 06:42:06;;;;;;;4.50;1.30;;;;;;;15.90;81.42;100877.20;1731011;82;26166;-83
2022/06/14 06:44:53;;;;;;;5.00;1.30;;;;;;;15.91;79.83;100878.34;1717936;82;26021;-83
2022/06/14 06:47:33;;;;;;;8.88;1.70;;;;;;;15.88;80.45;100876.59;1734955;82;25830;-84
2022/06/14 06:50:29;;;;;;;4.90;1.30;;;;;;;15.85;80.01;100890.00;1731192;81;28290;-83
2022/06/14 06:53:12;;;;;;;5.12;1.65;;;;;;;15.83;80.47;100881.80;1735281;82;25897;-82
2022/06/14 06:56:10;;;;;;;3.52;1.20;;;;;;;15.86;80.25;100886.78;1745346;81;25872;-83
2022/06/14 06:59:02;;;;;;;4.40;1.30;;;;;;;15.97;79.70;100879.37;1711855;82;26730;-83
2022/06/14 07:01:38;;;;;;;5.37;1.98;;;;;;;16.09;80.20;100883.88;1748943;81;25973;-83
2022/06/14 07:07:23;;;;;;;4.92;1.40;;;;;;;16.39;78.53;100876.01;1738197;81;26530;-83
2022/06/14 07:10:04;;;;;;;2.85;1.30;;;;;;;16.36;78.52;100879.13;1734714;82;25861;-83
2022/06/14 07:12:42;;;;;;;4.03;1.25;;;;;;;16.26;77.76;100880.66;1741411;82;25785;-82
2022/06/14 07:15:14;;;;;;;6.65;1.42;;;;;;;16.37;77.16;100871.34;1752775;81;26443;-82
2022/06/14 07:18:15;;;;;;;3.02;1.10;;;;;;;16.52;78.02;100875.95;1748632;81;27439;-83
2022/06/14 07:20:53;;;;;;;4.37;1.05;;;;;;;16.56;75.26;100877.69;1711717;82;25980;-84
2022/06/14 07:23:46;;;;;;;3.98;1.12;;;;;;;16.51;75.69;100884.30;1735421;82;26314;-83
2022/06/14 07:26:23;;;;;;;3.58;1.12;;;;;;;16.49;75.71;100882.27;1739779;81;26583;-83
2022/06/14 07:29:28;;;;;;;5.37;1.30;;;;;;;16.60;75.17;100887.85;1727122;82;25968;-83
2022/06/14 07:31:59;;;;;;;4.00;1.37;;;;;;;16.78;75.07;100876.28;1766416;80;27439;-83
2022/06/14 07:34:28;;;;;;;6.35;1.80;;;;;;;16.83;74.36;100879.97;1757138;81;26263;-83
2022/06/14 07:37:34;;;;;;;7.70;1.45;;;;;;;16.89;74.07;100872.87;1756017;81;25945;-83
2022/06/14 07:40:21;;;;;;;5.35;1.27;;;;;;;16.92;73.33;100881.36;1735085;82;25947;-81
2022/06/14 07:42:56;;;;;;;3.00;1.00;;;;;;;16.94;70.62;100872.49;1758005;81;25307;-82
2022/06/14 07:45:39;;;;;;;5.12;1.25;;;;;;;16.81;70.96;100876.66;1765330;81;27706;-82
2022/06/14 07:48:31;;;;;;;4.90;1.20;;;;;;;16.79;71.95;100880.11;1741251;80;25739;-82
2022/06/14 07:51:15;;;;;;;8.08;1.98;;;;;;;16.78;71.20;100881.69;1696510;82;25977;-83
2022/06/14 07:54:03;;;;;;;4.35;1.40;;;;;;;16.68;71.87;100886.23;1765536;80;25856;-83
2022/06/14 07:56:40;;;;;;;2.33;1.10;;;;;;;16.67;69.79;100887.81;1755451;80;25658;-82
2022/06/14 07:59:19;;;;;;;3.90;2.00;;;;;;;16.74;72.04;100885.34;1741061;82;27441;-83
2022/06/14 08:01:56;;;;;;;4.03;1.17;;;;;;;16.96;72.17;100883.09;1765158;81;25835;-83
2022/06/14 08:04:37;;;;;;;1.92;1.32;;;;;;;17.08;71.17;100877.27;1716380;82;25947;-82
2022/06/14 08:07:14;;;;;;;6.90;1.57;;;;;;;17.15;71.37;100880.73;1742606;81;26223;-82
2022/06/14 08:10:24;;;;;;;4.53;0.90;;;;;;;17.22;69.90;100886.91;1732351;81;25829;-82
2022/06/14 08:12:58;;;;;;;2.95;1.25;;;;;;;17.31;69.11;100882.88;1745386;80;27457;-82
2022/06/14 08:15:41;;;;;;;3.85;1.55;;;;;;;17.40;68.41;100884.77;1764735;80;25772;-83
2022/06/14 08:18:28;;;;;;;3.40;0.80;;;;;;;17.34;68.16;100882.41;1735787;82;26553;-83
2022/06/14 08:21:06;;;;;;;6.08;1.42;;;;;;;17.35;66.15;100879.19;1711139;82;25941;-82
2022/06/14 08:23:43;;;;;;;3.17;1.00;;;;;;;17.38;67.67;100881.45;1729381;82;26506;-83
2022/06/14 08:26:21;;;;;;;4.47;1.17;;;;;;;17.54;67.98;100886.30;1765442;80;27456;-82
2022/06/14 08:28:55;;;;;;;3.60;1.00;;;;;;;17.52;65.72;100878.92;1746447;81;25856;-81
2022/06/14 08:31:42;;;;;;;3.10;1.00;;;;;;;17.57;65.76;100878.58;1725343;81;25818;-82
2022/06/14 08:34:21;;;;;;;3.30;1.25;;;;;;;17.66;66.66;100869.62;1716649;82;26596;-83
2022/06/14 08:36:53;;;;;;;3.62;0.95;;;;;;;17.85;66.06;100874.48;1739288;82;25494;-82
2022/06/14 08:39:37;;;;;;;4.12;1.00;;;;;;;17.83;65.26;100874.73;1741494;80;27800;-82
2022/06/14 08:42:21;;;;;;;3.33;0.70;;;;;;;17.74;64.34;100874.73;1724898;81;25937;-83
2022/06/14 08:45:05;;;;;;;6.35;1.02;;;;;;;17.73;65.55;100877.13;1746034;81;25819;-82
2022/06/14 08:47:52;;;;;;;2.90;1.10;;;;;;;17.62;64.29;100888.73;1731928;82;25764;-82
2022/06/14 08:50:59;;;;;;;3.87;1.27;;;;;;;17.44;63.23;100878.68;1753190;81;26067;-83
2022/06/14 08:53:50;;;;;;;2.85;1.00;;;;;;;17.45;64.35;100882.23;1765388;80;27521;-81
2022/06/14 08:56:41;;;;;;;5.30;1.17;;;;;;;17.46;64.33;100875.22;1740889;82;25959;-82
2022/06/14 09:00:02;;;;;;;6.65;1.10;;;;;;;17.50;63.79;100876.45;1765878;80;25757;-82
2022/06/14 09:02:56;;;;;;;2.20;0.80;;;;;;;17.58;63.79;100882.08;1729195;82;26777;-84
2022/06/14 09:05:51;;;;;;;5.10;1.82;;;;;;;17.54;62.34;100887.14;1741653;82;25891;-83
2022/06/14 09:08:55;;;;;;;3.75;0.80;;;;;;;17.37;60.21;100871.14;1741249;82;27463;-82
2022/06/14 09:11:48;;;;;;;1.70;0.70;;;;;;;17.19;60.94;100873.01;1764730;81;25854;-82
2022/06/14 09:14:29;;;;;;;4.53;0.80;;;;;;;17.11;61.90;100881.42;1709709;82;25855;-82
2022/06/14 09:17:31;;;;;;;;;;;;;;;17.09;62.46;100891.61;1712341;83;26571;-82
2022/06/14 09:20:12;;;;;;;4.72;1.05;;;;;;;17.11;62.51;100884.93;1694441;83;26137;-84
2022/06/14 09:22:57;;;;;;;;;;;;;;;17.17;62.56;100891.36;1758987;81;28288;-84
2022/06/14 09:26:10;;;;;;;3.20;0.95;;;;;;;17.28;62.70;100886.02;1735246;82;25309;-83
2022/06/14 09:29:16;;;;;;;3.67;1.02;;;;;;;17.38;63.86;100893.12;1730306;82;25788;-84
2022/06/14 09:32:00;;;;;;;3.55;0.90;;;;;;;17.42;63.43;100889.43;1743617;81;26944;-84
2022/06/14 09:35:00;;;;;;;4.22;1.30;;;;;;;17.42;62.85;100890.27;1762897;81;25819;-82
2022/06/14 09:37:40;;;;;;;7.53;1.15;;;;;;;17.58;63.26;100891.05;1716029;82;27813;-82
2022/06/14 09:40:35;;;;;;;10.58;1.10;;;;;;;17.79;62.58;100893.02;1737407;81;27090;-84
2022/06/14 09:43:37;;;;;;;2.95;1.00;;;;;;;17.99;62.94;100889.00;1741431;81;25898;-82
2022/06/14 09:46:17;;;;;;;4.78;1.15;;;;;;;18.07;61.64;100891.94;1761385;81;26014;-82
2022/06/14 09:49:04;;;;;;;4.58;1.50;;;;;;;17.95;60.98;100897.28;1731549;82;25906;-84
2022/06/14 09:52:05;;;;;;;5.47;1.15;;;;;;;17.87;60.79;100904.90;1735757;81;27656;-83
2022/06/14 09:55:07;;;;;;;5.67;0.98;;;;;;;17.79;60.80;100894.37;1712367;82;26565;-82
2022/06/14 09:57:39;;;;;;;4.58;0.80;;;;;;;17.82;61.32;100897.45;1678358;83;25805;-82
2022/06/14 10:00:26;;;;;;;4.03;1.05;;;;;;;17.82;61.64;100891.19;1723194;83;25785;-82
2022/06/14 10:03:01;;;;;;;3.25;0.72;;;;;;;17.79;60.69;100891.14;1711450;82;25865;-83
2022/06/14 10:06:16;;;;;;;5.92;0.98;;;;;;;17.73;59.98;100884.73;1702227;82;27442;-83
2022/06/14 10:09:09;;;;;;;2.55;0.60;;;;;;;17.65;58.79;100895.88;1716099;82;25277;-82
2022/06/14 10:12:11;;;;;;;4.22;1.00;;;;;;;17.50;58.76;100894.06;1731952;82;25785;-82
2022/06/14 10:15:04;;;;;;;2.87;0.70;;;;;;;17.46;59.25;100896.05;1755358;81;25856;-83
2022/06/14 10:17:49;;;;;;;2.62;0.90;;;;;;;17.66;61.09;100893.45;1733150;82;25334;-81
2022/06/14 10:20:33;;;;;;;2.70;0.90;;;;;;;17.93;60.37;100880.95;1740821;81;28262;-82
2022/06/14 10:23:25;;;;;;;4.67;1.10;;;;;;;18.22;60.63;100874.19;1765103;81;25743;-82
2022/06/14 10:29:17;;;;;;;9.23;0.95;;;;;;;18.19;57.89;100895.52;1765636;81;26579;-82
2022/06/14 10:32:15;;;;;;;2.72;0.95;;;;;;;17.98;57.60;100893.30;1686755;84;25853;-82
2022/06/14 10:34:53;;;;;;;3.72;0.80;;;;;;;17.82;58.44;100894.73;1666396;85;27477;-82
2022/06/14 10:37:48;;;;;;;4.67;1.25;;;;;;;17.90;59.75;100890.91;1709025;82;26007;-82
2022/06/14 10:40:33;;;;;;;6.55;1.05;;;;;;;18.14;59.20;100877.23;1723735;81;25986;-81
2022/06/14 10:43:31;;;;;;;1.87;0.72;;;;;;;18.41;56.46;100874.98;1765530;79;26594;-81
2022/06/14 10:46:18;;;;;;;1.95;0.57;;;;;;;18.66;57.34;100880.26;1735059;82;25758;-82
2022/06/14 10:49:29;;;;;;;4.80;0.85;;;;;;;18.66;55.63;100885.69;1740484;81;27443;-82
2022/06/14 10:52:31;;;;;;;4.58;0.85;;;;;;;18.45;54.07;100879.72;1765409;80;25902;-81
2022/06/14 10:55:21;;;;;;;2.45;0.70;;;;;;;18.17;54.87;100890.34;1741150;82;26025;-82
2022/06/14 10:58:16;;;;;;;3.70;0.70;;;;;;;18.02;55.72;100890.43;1726578;82;26282;-81
2022/06/14 11:01:14;;;;;;;3.00;0.65;;;;;;;17.97;55.81;100893.82;1728062;80;25764;-80
2022/06/14 11:04:08;;;;;;;4.95;0.80;;;;;;;17.98;54.54;100886.52;1742240;81;27441;-81
2022/06/14 11:06:57;;;;;;;5.10;1.07;;;;;;;18.10;58.41;100890.95;1729263;82;27098;-81
2022/06/14 11:09:37;;;;;;;6.95;1.57;;;;;;;18.31;57.25;100889.09;1753145;81;25993;-81
2022/06/14 11:12:15;;;;;;;1.45;0.68;;;;;;;18.42;55.79;100892.38;1740676;82;25788;-82
2022/06/14 11:15:11;;;;;;;4.47;1.45;;;;;;;18.39;54.07;100887.95;1736991;81;25347;-81
2022/06/14 11:18:19;;;;;;;4.58;1.22;;;;;;;18.30;54.04;100896.94;1718241;82;27446;-81
2022/06/14 11:21:39;;;;;;;5.17;1.65;;;;;;;18.24;54.47;100892.96;1769761;80;25795;-81
2022/06/14 11:24:29;;;;;;;3.58;1.25;;;;;;;18.23;54.00;100895.36;1772303;80;25799;-81
2022/06/14 11:27:23;;;;;;;2.00;0.85;;;;;;;18.21;53.01;100890.70;1772255;80;26000;-82
2022/06/14 11:30:42;;;;;;;4.58;1.00;;;;;;;18.17;51.85;100895.76;1772823;80;25830;-81
2022/06/14 11:33:23;;;;;;;3.80;0.90;;;;;;;18.07;52.99;100891.94;1772353;80;27462;-83
2022/06/14 11:36:44;;;;;;;2.10;0.80;;;;;;;17.97;54.05;100897.89;1740283;80;26325;-81
2022/06/14 11:39:25;;;;;;;;;;;;;;;17.93;54.63;100906.17;1706783;83;25887;-81
2022/06/14 11:41:52;;;;;;;4.67;0.93;;;;;;;17.83;54.88;100900.47;1734617;82;25821;-81
2022/06/14 11:44:35;;;;;;;2.62;0.90;;;;;;;17.73;54.74;100909.63;1735234;82;25940;-83
2022/06/14 11:47:31;;;;;;;3.98;0.72;;;;;;;17.65;54.72;100909.94;1711643;83;28312;-82
2022/06/14 11:50:24;;;;;;;3.72;0.78;;;;;;;17.58;54.19;100917.30;1704196;83;25773;-81
2022/06/14 11:53:08;;;;;;;4.60;0.70;;;;;;;17.45;54.56;100924.20;1762126;80;25928;-81
2022/06/14 11:55:40;;;;;;;3.75;0.95;;;;;;;17.34;54.27;100927.64;1753560;79;25863;-81
2022/06/14 11:58:35;;;;;;;2.95;0.90;;;;;;;17.30;54.69;100919.11;1733698;81;25554;-81
2022/06/14 12:01:15;;;;;;;4.53;0.80;;;;;;;17.27;55.25;100921.45;1720480;82;27488;-80
2022/06/14 12:04:17;;;;;;;3.70;0.60;;;;;;;17.28;55.12;100921.77;1734204;82;27096;-81
2022/06/14 12:06:49;;;;;;;2.00;0.95;;;;;;;17.32;56.08;100927.03;1765397;81;25796;-81
2022/06/14 12:09:56;;;;;;;4.87;1.20;;;;;;;17.38;56.29;100923.43;1741181;81;25944;-83
2022/06/14 12:12:46;;;;;;;3.10;1.07;;;;;;;17.43;55.84;100929.82;1752938;80;26033;-81
2022/06/14 12:15:16;;;;;;;3.70;1.10;;;;;;;17.47;56.47;100929.67;1715969;81;28268;-81
2022/06/14 12:17:52;;;;;;;4.97;1.30;;;;;;;17.52;56.83;100928.52;1738697;82;26164;-81
2022/06/14 12:20:23;;;;;;;2.58;1.07;;;;;;;17.63;57.06;100929.66;1730201;82;25907;-82
2022/06/14 12:23:04;;;;;;;5.22;0.85;;;;;;;17.71;56.85;100934.77;1741262;82;26636;-82
2022/06/14 12:28:47;;;;;;;3.05;0.82;;;;;;;17.90;57.71;100933.72;1741158;81;27561;-81
2022/06/14 12:31:42;;;;;;;2.08;1.25;;;;;;;17.98;57.53;100925.30;1741250;82;26594;-81
2022/06/14 12:34:29;;;;;;;1.98;0.80;;;;;;;18.01;55.99;100930.78;1753291;80;25885;-81
2022/06/14 12:37:18;;;;;;;2.60;0.90;;;;;;;17.94;54.09;100920.02;1731401;82;26536;-82
2022/06/14 12:39:56;;;;;;;3.83;0.88;;;;;;;17.89;55.43;100930.72;1733239;81;25979;-81
2022/06/14 12:42:46;;;;;;;2.80;1.00;;;;;;;17.95;57.14;100937.11;1735018;82;27475;-81
2022/06/14 12:45:18;;;;;;;4.55;1.00;;;;;;;18.03;56.85;100935.44;1726454;82;25947;-82
2022/06/14 12:48:07;;;;;;;2.67;1.05;;;;;;;18.09;56.47;100937.27;1745754;80;25794;-81
2022/06/14 12:50:48;;;;;;;2.17;1.02;;;;;;;18.14;56.35;100933.33;1728832;81;25993;-81
2022/06/14 12:53:32;;;;;;;3.65;0.80;;;;;;;18.13;56.67;100931.17;1733968;82;25690;-82
2022/06/14 12:56:13;;;;;;;5.40;1.00;;;;;;;18.16;56.68;100936.64;1734988;82;27470;-82
2022/06/14 12:59:19;;;;;;;5.72;1.00;;;;;;;18.09;56.29;100938.63;1755711;80;26541;-82
2022/06/14 13:02:06;;;;;;;4.33;1.10;;;;;;;18.05;56.62;100939.59;1726261;82;26028;-82
2022/06/14 13:04:41;;;;;;;6.90;1.30;;;;;;;17.94;56.01;100945.77;1734623;81;26330;-81